createdAt,value
2018-09-03T00:00:24.012Z,99.99
2018-09-03T00:01:24.040Z,99.99
2018-09-03T00:02:24.061Z,99.99
2018-09-03T00:03:24.090Z,99.99
2018-09-03T00:04:24.114Z,99.99
2018-09-03T00:05:24.143Z,99.99
2018-09-03T00:06:24.162Z,99.99
2018-09-03T00:07:24.193Z,99.99
2018-09-03T00:08:24.217Z,99.99
2018-09-03T00:09:24.237Z,99.99
2018-09-03T00:10:24.265Z,99.99
2018-09-03T00:11:24.346Z,99.99
2018-09-03T00:12:24.311Z,99.99
2018-09-03T00:13:24.338Z,99.99
2018-09-03T00:14:24.361Z,99.99
2018-09-03T00:15:24.386Z,99.99
2018-09-03T00:16:24.415Z,99.99
2018-09-03T00:17:24.435Z,99.99
2018-09-03T00:18:24.464Z,99.99
2018-09-03T00:19:24.487Z,99.99
2018-09-03T00:20:24.511Z,99.99
2018-09-03T00:21:24.543Z,99.99
2018-09-03T00:22:24.557Z,99.99
2018-09-03T00:23:24.590Z,99.99
2018-09-03T00:24:24.613Z,99.99
2018-09-03T00:25:24.664Z,99.99
2018-09-03T00:26:24.658Z,99.99
2018-09-03T00:27:24.683Z,99.99
2018-09-03T00:28:24.711Z,99.99
2018-09-03T00:29:24.731Z,99.99
2018-09-03T00:30:24.760Z,99.99
2018-09-03T00:31:24.782Z,99.99
2018-09-03T00:32:24.812Z,99.99
2018-09-03T00:33:24.832Z,99.99
2018-09-03T00:34:24.858Z,99.99
2018-09-03T00:35:24.888Z,99.99
2018-09-03T00:36:24.909Z,99.99
2018-09-03T00:37:24.931Z,99.99
2018-09-03T00:38:24.962Z,99.99
2018-09-03T00:39:24.985Z,99.99
2018-09-03T00:40:25.010Z,99.99
2018-09-03T00:41:25.033Z,99.99
2018-09-03T00:42:25.057Z,99.99
2018-09-03T00:43:25.083Z,99.99
2018-09-03T00:44:25.106Z,99.99
2018-09-03T00:45:25.131Z,99.99
2018-09-03T00:46:25.152Z,99.99
2018-09-03T00:47:25.176Z,99.99
2018-09-03T00:48:25.205Z,99.99
2018-09-03T00:49:25.234Z,99.99
2018-09-03T00:50:25.251Z,99.99
2018-09-03T00:51:25.275Z,99.99
2018-09-03T00:52:25.302Z,99.99
2018-09-03T00:53:25.327Z,99.99
2018-09-03T00:54:25.347Z,99.99
2018-09-03T00:55:25.379Z,99.99
2018-09-03T00:56:25.404Z,99.99
2018-09-03T00:57:25.428Z,99.99
2018-09-03T00:58:25.450Z,99.99
2018-09-03T00:59:25.476Z,99.99
2018-09-03T01:00:25.495Z,99.99
2018-09-03T01:01:25.522Z,99.99
2018-09-03T01:02:25.552Z,99.99
2018-09-03T01:03:25.571Z,99.99
2018-09-03T01:04:25.597Z,99.99
2018-09-03T01:05:25.620Z,99.99
2018-09-03T01:06:25.647Z,99.99
2018-09-03T01:07:25.674Z,99.99
2018-09-03T01:08:25.697Z,99.99
2018-09-03T01:09:25.720Z,99.99
2018-09-03T01:10:25.747Z,99.99
2018-09-03T01:11:25.768Z,99.99
2018-09-03T01:12:25.798Z,99.99
2018-09-03T01:13:25.816Z,99.99
2018-09-03T01:14:25.837Z,99.99
2018-09-03T01:15:25.867Z,99.99
2018-09-03T01:16:25.889Z,99.99
2018-09-03T01:17:25.917Z,99.99
2018-09-03T01:18:25.940Z,99.99
2018-09-03T01:19:25.966Z,99.99
2018-09-03T01:20:25.985Z,99.99
2018-09-03T01:21:26.017Z,99.99
2018-09-03T01:22:26.037Z,99.99
2018-09-03T01:23:28.687Z,99.99
2018-09-03T01:24:26.084Z,99.99
2018-09-03T01:25:32.379Z,99.99
2018-09-03T01:26:26.341Z,99.99
2018-09-03T01:28:23.739Z,99.99
2018-09-03T01:29:23.814Z,99.99
2018-09-03T01:30:23.787Z,99.99
2018-09-03T01:31:23.809Z,99.99
2018-09-03T01:32:23.836Z,99.99
2018-09-03T01:36:37.287Z,99.99
2018-09-03T01:37:37.315Z,99.99
2018-09-03T01:38:37.334Z,99.99
2018-09-03T01:39:37.360Z,99.99
2018-09-03T01:40:37.382Z,99.99
2018-09-03T01:41:37.412Z,99.99
2018-09-03T01:42:37.435Z,99.99
2018-09-03T01:43:37.775Z,99.99
2018-09-03T01:44:37.488Z,99.99
2018-09-03T01:45:37.510Z,99.99
2018-09-03T01:46:38.254Z,99.99
2018-09-03T01:47:37.572Z,99.99
2018-09-03T01:48:37.780Z,99.99
2018-09-03T01:49:37.823Z,99.99
2018-09-03T01:50:37.948Z,99.99
2018-09-03T01:51:37.668Z,99.99
2018-09-03T01:52:37.713Z,99.99
2018-09-03T01:53:37.715Z,99.99
2018-09-03T01:54:37.722Z,99.99
2018-09-03T01:56:37.794Z,99.99
2018-09-03T01:57:38.118Z,99.99
2018-09-03T01:58:38.042Z,99.99
2018-09-03T01:59:37.877Z,99.99
2018-09-03T02:00:37.890Z,99.99
2018-09-03T02:01:37.914Z,99.99
2018-09-03T02:02:37.941Z,99.99
2018-09-03T02:03:38.166Z,99.99
2018-09-03T02:05:37.996Z,99.99
2018-09-03T02:07:38.062Z,99.99
2018-09-03T02:08:38.083Z,99.99
2018-09-03T02:09:38.108Z,99.99
2018-09-03T02:10:38.135Z,99.99
2018-09-03T02:11:38.160Z,99.99
2018-09-03T02:12:38.391Z,99.99
2018-09-03T02:13:38.194Z,99.99
2018-09-03T02:14:38.213Z,99.99
2018-09-03T02:15:38.254Z,99.99
2018-09-03T02:16:38.266Z,99.99
2018-09-03T02:17:38.295Z,99.99
2018-09-03T02:18:38.538Z,99.99
2018-09-03T02:19:38.350Z,99.99
2018-09-03T02:20:38.404Z,99.99
2018-09-03T02:21:38.402Z,99.99
2018-09-03T02:22:38.431Z,99.99
2018-09-03T02:23:38.440Z,99.99
2018-09-03T02:24:38.469Z,99.99
2018-09-03T02:25:38.502Z,99.99
2018-09-03T02:26:38.915Z,99.99
2018-09-03T02:27:38.551Z,99.99
2018-09-03T02:28:38.574Z,99.99
2018-09-03T02:29:38.596Z,99.99
2018-09-03T02:30:38.629Z,99.99
2018-09-03T02:31:38.660Z,99.99
2018-09-03T02:32:38.657Z,99.99
2018-09-03T02:33:38.699Z,99.99
2018-09-03T02:34:38.704Z,99.99
2018-09-03T02:35:38.750Z,99.99
2018-09-03T02:36:38.767Z,99.99
2018-09-03T02:37:38.793Z,99.99
2018-09-03T02:38:38.806Z,99.99
2018-09-03T02:39:38.841Z,99.99
2018-09-03T02:40:39.057Z,99.99
2018-09-03T02:41:38.879Z,99.99
2018-09-03T02:42:38.900Z,99.99
2018-09-03T02:43:38.920Z,99.99
2018-09-03T02:45:38.985Z,99.99
2018-09-03T02:46:39.014Z,99.99
2018-09-03T02:47:39.020Z,99.99
2018-09-03T02:48:39.066Z,99.99
2018-09-03T02:49:39.089Z,99.99
2018-09-03T02:50:39.090Z,99.99
2018-09-03T02:51:39.136Z,99.99
2018-09-03T02:52:39.462Z,99.99
2018-09-03T02:53:39.386Z,99.99
2018-09-03T02:54:39.213Z,99.99
2018-09-03T02:55:39.214Z,99.99
2018-09-03T02:56:39.240Z,99.99
2018-09-03T02:57:39.994Z,99.99
2018-09-03T02:58:39.287Z,99.99
2018-09-03T02:59:39.330Z,99.99
2018-09-03T03:00:39.338Z,99.99
2018-09-03T03:01:39.363Z,99.99
2018-09-03T03:02:39.712Z,99.99
2018-09-03T03:03:39.427Z,99.99
2018-09-03T03:04:39.450Z,99.99
2018-09-03T03:05:39.478Z,99.99
2018-09-03T03:06:39.480Z,99.99
2018-09-03T03:07:39.523Z,99.99
2018-09-03T03:08:39.530Z,99.99
2018-09-03T03:09:39.552Z,99.99
2018-09-03T03:10:39.592Z,99.99
2018-09-03T03:11:39.613Z,99.99
2018-09-03T03:12:39.627Z,99.99
2018-09-03T03:13:39.653Z,99.99
2018-09-03T03:14:39.674Z,99.99
2018-09-03T03:15:39.702Z,99.99
2018-09-03T03:16:39.725Z,99.99
2018-09-03T03:17:39.752Z,99.99
2018-09-03T03:18:39.787Z,99.99
2018-09-03T03:19:39.795Z,99.99
2018-09-03T03:20:39.817Z,99.99
2018-09-03T03:21:39.851Z,99.99
2018-09-03T03:22:39.871Z,99.99
2018-09-03T03:23:39.897Z,99.99
2018-09-03T03:24:39.921Z,99.99
2018-09-03T03:25:39.948Z,99.99
2018-09-03T03:26:39.971Z,99.99
2018-09-03T03:27:39.991Z,99.99
2018-09-03T03:28:40.014Z,99.99
2018-09-03T03:29:40.043Z,99.99
2018-09-03T03:30:40.060Z,99.99
2018-09-03T03:31:40.092Z,99.99
2018-09-03T03:32:40.108Z,99.99
2018-09-03T03:33:40.134Z,99.99
2018-09-03T03:34:40.159Z,99.99
2018-09-03T03:35:40.183Z,99.99
2018-09-03T03:36:40.210Z,99.99
2018-09-03T03:37:40.234Z,99.99
2018-09-03T03:38:40.258Z,99.99
2018-09-03T03:39:40.281Z,99.99
2018-09-03T03:40:40.304Z,99.99
2018-09-03T03:41:40.328Z,99.99
2018-09-03T03:42:40.355Z,99.99
2018-09-03T03:43:40.382Z,99.99
2018-09-03T03:44:40.401Z,99.99
2018-09-03T03:45:40.424Z,99.99
2018-09-03T03:46:40.451Z,99.99
2018-09-03T03:47:40.475Z,99.99
2018-09-03T03:48:40.568Z,99.99
2018-09-03T03:49:40.528Z,99.99
2018-09-03T03:50:40.549Z,99.99
2018-09-03T03:51:40.568Z,99.99
2018-09-03T03:52:40.596Z,99.99
2018-09-03T03:53:40.621Z,99.99
2018-09-03T03:54:40.643Z,99.99
2018-09-03T03:55:40.672Z,99.99
2018-09-03T03:56:40.695Z,99.99
2018-09-03T03:57:40.718Z,99.99
2018-09-03T03:58:40.742Z,99.99
2018-09-03T03:59:40.768Z,99.99
2018-09-03T04:00:40.791Z,99.99
2018-09-03T04:01:40.809Z,99.99
2018-09-03T04:02:40.838Z,99.99
2018-09-03T04:03:40.862Z,99.99
2018-09-03T04:04:40.894Z,99.99
2018-09-03T04:05:40.907Z,99.99
2018-09-03T04:06:40.933Z,99.99
2018-09-03T04:07:40.961Z,99.99
2018-09-03T04:08:40.989Z,99.99
2018-09-03T04:09:41.008Z,99.99
2018-09-03T04:10:41.028Z,99.99
2018-09-03T04:11:41.057Z,99.99
2018-09-03T04:12:41.081Z,99.99
2018-09-03T04:13:41.102Z,99.99
2018-09-03T04:14:41.132Z,99.99
2018-09-03T04:15:41.152Z,99.99
2018-09-03T04:16:41.179Z,99.99
2018-09-03T04:17:41.205Z,99.99
2018-09-03T04:18:41.229Z,99.99
2018-09-03T04:19:41.249Z,99.99
2018-09-03T04:20:41.273Z,99.99
2018-09-03T04:21:41.300Z,99.99
2018-09-03T04:22:41.322Z,99.99
2018-09-03T04:23:41.348Z,99.99
2018-09-03T04:24:41.371Z,99.99
2018-09-03T04:25:41.401Z,99.99
2018-09-03T04:26:41.419Z,99.99
2018-09-03T04:27:41.443Z,99.99
2018-09-03T04:28:41.477Z,99.99
2018-09-03T04:29:41.495Z,99.99
2018-09-03T04:30:41.512Z,99.99
2018-09-03T04:31:41.539Z,99.99
2018-09-03T04:32:41.566Z,99.99
2018-09-03T04:33:41.595Z,99.99
2018-09-03T04:34:41.611Z,99.99
2018-09-03T04:35:41.641Z,99.99
2018-09-03T04:36:41.658Z,99.99
2018-09-03T04:37:41.687Z,99.99
2018-09-03T04:38:41.772Z,99.99
2018-09-03T04:39:41.734Z,99.99
2018-09-03T04:40:41.762Z,99.99
2018-09-03T04:41:41.782Z,99.99
2018-09-03T04:42:41.807Z,99.99
2018-09-03T04:43:41.830Z,99.99
2018-09-03T04:44:41.852Z,99.99
2018-09-03T04:45:41.876Z,99.99
2018-09-03T04:46:41.904Z,99.99
2018-09-03T04:47:41.926Z,99.99
2018-09-03T04:48:41.956Z,99.99
2018-09-03T04:49:41.976Z,99.99
2018-09-03T04:50:42.001Z,99.99
2018-09-03T04:51:42.034Z,99.99
2018-09-03T04:52:42.048Z,99.99
2018-09-03T04:53:42.074Z,99.99
2018-09-03T04:54:42.238Z,99.99
2018-09-03T04:55:42.123Z,99.99
2018-09-03T04:56:42.147Z,99.99
2018-09-03T04:57:42.174Z,99.99
2018-09-03T04:58:42.200Z,99.99
2018-09-03T04:59:42.217Z,99.99
2018-09-03T05:00:42.248Z,99.99
2018-09-03T05:01:42.314Z,99.99
2018-09-03T05:02:42.294Z,99.99
2018-09-03T05:03:42.316Z,99.99
2018-09-03T05:04:42.344Z,99.99
2018-09-03T05:05:42.411Z,99.99
2018-09-03T05:06:42.390Z,99.99
2018-09-03T05:07:42.414Z,99.99
2018-09-03T05:08:42.441Z,99.99
2018-09-03T05:09:42.463Z,99.99
2018-09-03T05:10:42.487Z,99.99
2018-09-03T05:11:42.596Z,99.99
2018-09-03T05:12:42.539Z,99.99
2018-09-03T05:13:42.558Z,99.99
2018-09-03T05:14:42.588Z,99.99
2018-09-03T05:15:42.610Z,99.99
2018-09-03T05:16:42.636Z,99.99
2018-09-03T05:17:42.658Z,99.99
2018-09-03T05:18:42.684Z,99.99
2018-09-03T05:19:42.707Z,99.99
2018-09-03T05:20:42.733Z,99.99
2018-09-03T05:21:42.758Z,99.99
2018-09-03T05:22:42.809Z,99.99
2018-09-03T05:23:42.807Z,99.99
2018-09-03T05:24:42.830Z,99.99
2018-09-03T05:25:42.858Z,99.99
2018-09-03T05:26:42.880Z,99.99
2018-09-03T05:27:42.908Z,99.99
2018-09-03T05:28:42.928Z,99.99
2018-09-03T05:29:42.950Z,99.99
2018-09-03T05:30:42.977Z,99.99
2018-09-03T05:31:43.000Z,99.99
2018-09-03T05:32:43.026Z,99.99
2018-09-03T05:33:43.055Z,99.99
2018-09-03T05:34:43.081Z,99.99
2018-09-03T05:35:43.100Z,99.99
2018-09-03T05:36:43.129Z,99.99
2018-09-03T05:37:43.146Z,99.99
2018-09-03T05:38:43.170Z,99.99
2018-09-03T05:39:43.199Z,99.99
2018-09-03T05:40:43.221Z,99.99
2018-09-03T05:41:43.247Z,99.99
2018-09-03T05:42:43.270Z,99.99
2018-09-03T05:43:43.455Z,99.99
2018-09-03T05:44:43.320Z,99.99
2018-09-03T05:45:43.345Z,99.99
2018-09-03T05:46:43.372Z,99.99
2018-09-03T05:47:43.397Z,99.99
2018-09-03T05:48:43.430Z,99.99
2018-09-03T05:49:43.448Z,99.99
2018-09-03T05:50:43.521Z,99.99
2018-09-03T05:51:43.497Z,99.99
2018-09-03T05:52:43.527Z,99.99
2018-09-03T05:53:43.548Z,99.99
2018-09-03T05:54:43.573Z,99.99
2018-09-03T05:55:43.597Z,99.99
2018-09-03T05:56:43.620Z,99.99
2018-09-03T05:57:43.644Z,99.99
2018-09-03T05:58:43.665Z,99.99
2018-09-03T05:59:43.691Z,99.99
2018-09-03T06:00:43.714Z,99.99
2018-09-03T06:01:43.746Z,99.99
2018-09-03T06:02:43.767Z,99.99
2018-09-03T06:03:43.792Z,99.99
2018-09-03T06:04:43.872Z,99.99
2018-09-03T06:05:43.846Z,99.99
2018-09-03T06:06:43.863Z,99.99
2018-09-03T06:07:43.898Z,99.99
2018-09-03T06:08:43.917Z,99.99
2018-09-03T06:09:43.943Z,99.99
2018-09-03T06:10:43.995Z,99.99
2018-09-03T06:11:43.993Z,99.99
2018-09-03T06:12:44.085Z,99.99
2018-09-03T06:13:44.040Z,99.99
2018-09-03T06:14:44.063Z,99.99
2018-09-03T06:15:44.093Z,99.99
2018-09-03T06:16:44.115Z,99.99
2018-09-03T06:17:44.184Z,99.99
2018-09-03T06:18:44.163Z,99.99
2018-09-03T06:19:44.187Z,99.99
2018-09-03T06:20:44.217Z,99.99
2018-09-03T06:21:44.243Z,99.99
2018-09-03T06:22:44.268Z,99.99
2018-09-03T06:23:44.291Z,99.99
2018-09-03T06:24:44.312Z,99.99
2018-09-03T06:25:44.342Z,99.99
2018-09-03T06:26:44.425Z,99.99
2018-09-03T06:27:44.387Z,99.99
2018-09-03T06:28:44.414Z,99.99
2018-09-03T06:29:44.441Z,99.99
2018-09-03T06:30:44.461Z,99.99
2018-09-03T06:31:44.488Z,99.99
2018-09-03T06:32:44.564Z,99.99
2018-09-03T06:33:44.537Z,99.99
2018-09-03T06:34:44.563Z,99.99
2018-09-03T06:35:44.585Z,99.99
2018-09-03T06:36:44.614Z,99.99
2018-09-03T06:37:44.641Z,99.99
2018-09-03T06:38:44.665Z,99.99
2018-09-03T06:39:44.686Z,99.99
2018-09-03T06:40:44.715Z,99.99
2018-09-03T06:41:44.737Z,99.99
2018-09-03T06:42:44.763Z,99.99
2018-09-03T06:43:44.785Z,99.99
2018-09-03T06:44:44.811Z,99.99
2018-09-03T06:45:44.843Z,99.99
2018-09-03T06:46:44.861Z,99.99
2018-09-03T06:47:44.887Z,99.99
2018-09-03T06:48:44.914Z,99.99
2018-09-03T06:49:44.939Z,99.99
2018-09-03T06:50:44.964Z,99.99
2018-09-03T06:51:44.990Z,99.99
2018-09-03T06:52:45.028Z,99.99
2018-09-03T06:53:45.046Z,99.99
2018-09-03T06:54:45.065Z,99.99
2018-09-03T06:55:45.092Z,99.99
2018-09-03T06:56:45.116Z,99.99
2018-09-03T06:57:45.145Z,99.99
2018-09-03T06:58:45.164Z,99.99
2018-09-03T06:59:45.193Z,99.99
2018-09-03T07:00:45.220Z,99.99
2018-09-03T07:01:45.242Z,99.99
2018-09-03T07:02:45.268Z,99.99
2018-09-03T07:03:45.291Z,99.99
2018-09-03T07:04:45.317Z,99.99
2018-09-03T07:05:45.343Z,99.99
2018-09-03T07:06:45.426Z,99.99
2018-09-03T07:07:45.399Z,99.99
2018-09-03T07:08:45.418Z,99.99
2018-09-03T07:09:45.449Z,99.99
2018-09-03T07:10:45.470Z,99.99
2018-09-03T07:11:45.498Z,99.99
2018-09-03T07:12:45.528Z,99.99
2018-09-03T07:13:45.547Z,99.99
2018-09-03T07:14:45.574Z,99.99
2018-09-03T07:15:45.602Z,99.99
2018-09-03T07:16:45.631Z,99.99
2018-09-03T07:17:45.653Z,99.99
2018-09-03T07:18:45.705Z,99.99
2018-09-03T07:19:45.701Z,99.99
2018-09-03T07:20:45.728Z,99.99
2018-09-03T07:21:45.750Z,99.99
2018-09-03T07:22:45.806Z,99.99
2018-09-03T07:23:45.808Z,99.99
2018-09-03T07:24:45.830Z,99.99
2018-09-03T07:25:45.855Z,99.99
2018-09-03T07:26:45.882Z,99.99
2018-09-03T07:27:45.908Z,99.99
2018-09-03T07:28:45.943Z,99.99
2018-09-03T07:29:45.955Z,99.99
2018-09-03T07:30:45.988Z,99.99
2018-09-03T07:31:46.008Z,99.99
2018-09-03T07:32:46.077Z,99.99
2018-09-03T07:33:46.069Z,99.99
2018-09-03T07:34:46.084Z,99.99
2018-09-03T07:35:46.114Z,99.99
2018-09-03T07:36:46.136Z,99.99
2018-09-03T07:37:46.167Z,99.99
2018-09-03T07:38:46.187Z,99.99
2018-09-03T07:39:46.215Z,99.99
2018-09-03T07:40:46.242Z,99.99
2018-09-03T07:41:46.265Z,99.99
2018-09-03T07:42:46.359Z,99.99
2018-09-03T07:43:46.328Z,99.99
2018-09-03T07:44:46.350Z,99.99
2018-09-03T07:45:46.373Z,99.99
2018-09-03T07:46:46.394Z,99.99
2018-09-03T07:47:46.415Z,99.99
2018-09-03T07:48:46.443Z,99.99
2018-09-03T07:49:46.469Z,99.99
2018-09-03T07:50:46.500Z,99.99
2018-09-03T07:51:46.523Z,99.99
2018-09-03T07:52:46.545Z,99.99
2018-09-03T07:53:46.574Z,99.99
2018-09-03T07:54:46.596Z,99.99
2018-09-03T07:55:46.626Z,99.99
2018-09-03T07:56:46.650Z,99.99
2018-09-03T07:57:46.678Z,99.99
2018-09-03T07:58:46.708Z,99.99
2018-09-03T07:59:46.729Z,99.99
2018-09-03T08:00:46.755Z,99.99
2018-09-03T08:01:46.789Z,99.99
2018-09-03T08:02:46.806Z,99.99
2018-09-03T08:03:46.839Z,99.99
2018-09-03T08:04:46.858Z,99.99
2018-09-03T08:05:46.887Z,99.99
2018-09-03T08:06:46.909Z,99.99
2018-09-03T08:07:46.937Z,99.99
2018-09-03T08:08:46.966Z,99.99
2018-09-03T08:09:46.996Z,99.99
2018-09-03T08:10:47.015Z,99.99
2018-09-03T08:11:47.043Z,99.99
2018-09-03T08:12:47.102Z,99.99
2018-09-03T08:13:47.095Z,99.99
2018-09-03T08:14:47.119Z,99.99
2018-09-03T08:15:47.151Z,99.99
2018-09-03T08:16:47.175Z,99.99
2018-09-03T08:17:47.203Z,99.99
2018-09-03T08:18:47.227Z,99.99
2018-09-03T08:19:47.256Z,99.99
2018-09-03T08:20:47.282Z,99.99
2018-09-03T08:21:47.307Z,99.99
2018-09-03T08:22:47.333Z,99.99
2018-09-03T08:23:47.359Z,99.99
2018-09-03T08:24:47.384Z,99.99
2018-09-03T08:25:47.409Z,99.99
2018-09-03T08:26:47.436Z,99.99
2018-09-03T08:27:47.458Z,99.99
2018-09-03T08:28:47.484Z,99.99
2018-09-03T08:29:47.515Z,99.99
2018-09-03T08:30:47.543Z,99.99
2018-09-03T08:31:47.573Z,99.99
2018-09-03T08:32:47.590Z,99.99
2018-09-03T08:33:47.620Z,99.99
2018-09-03T08:34:47.643Z,99.99
2018-09-03T08:35:47.672Z,99.99
2018-09-03T08:36:47.699Z,99.99
2018-09-03T08:37:47.725Z,99.99
2018-09-03T08:38:47.745Z,99.99
2018-09-03T08:39:47.772Z,99.99
2018-09-03T08:40:47.807Z,99.99
2018-09-03T08:41:47.828Z,99.99
2018-09-03T08:42:47.853Z,99.99
2018-09-03T08:43:47.872Z,99.99
2018-09-03T08:44:47.967Z,99.99
2018-09-03T08:45:47.928Z,99.99
2018-09-03T08:46:47.955Z,99.99
2018-09-03T08:47:47.981Z,99.99
2018-09-03T08:48:48.010Z,99.99
2018-09-03T08:49:48.035Z,99.99
2018-09-03T08:50:48.061Z,99.99
2018-09-03T08:51:48.087Z,99.99
2018-09-03T08:52:48.134Z,99.99
2018-09-03T08:53:48.141Z,99.99
2018-09-03T08:54:48.165Z,99.99
2018-09-03T08:55:48.201Z,99.99
2018-09-03T08:56:48.229Z,99.99
2018-09-03T08:57:48.243Z,99.99
2018-09-03T08:58:48.273Z,99.99
2018-09-03T08:59:48.298Z,99.99
2018-09-03T09:00:48.329Z,99.99
2018-09-03T09:01:48.355Z,99.99
2018-09-03T09:02:48.383Z,99.99
2018-09-03T09:03:48.408Z,99.99
2018-09-03T09:04:48.435Z,99.99
2018-09-03T09:05:48.490Z,99.99
2018-09-03T09:06:48.487Z,99.99
2018-09-03T09:07:48.509Z,99.99
2018-09-03T09:08:48.541Z,99.99
2018-09-03T09:09:48.565Z,99.99
2018-09-03T09:10:48.595Z,99.99
2018-09-03T09:11:48.690Z,99.99
2018-09-03T09:12:48.649Z,99.99
2018-09-03T09:13:48.685Z,99.99
2018-09-03T09:14:48.703Z,99.99
2018-09-03T09:15:48.739Z,99.99
2018-09-03T09:16:48.759Z,99.99
2018-09-03T09:17:48.789Z,99.99
2018-09-03T09:18:48.814Z,99.99
2018-09-03T09:19:48.841Z,99.99
2018-09-03T09:20:48.860Z,99.99
2018-09-03T09:21:48.902Z,99.99
2018-09-03T09:22:48.917Z,99.99
2018-09-03T09:23:48.939Z,99.99
2018-09-03T09:24:48.968Z,99.99
2018-09-03T09:25:49.002Z,99.99
2018-09-03T09:26:49.019Z,99.99
2018-09-03T09:27:49.049Z,99.99
2018-09-03T09:28:49.073Z,99.99
2018-09-03T09:29:49.106Z,99.99
2018-09-03T09:30:49.129Z,99.99
2018-09-03T09:31:49.158Z,99.99
2018-09-03T09:32:49.184Z,99.99
2018-09-03T09:33:49.214Z,99.99
2018-09-03T09:34:49.239Z,99.99
2018-09-03T09:35:49.305Z,99.99
2018-09-03T09:36:49.313Z,99.99
2018-09-03T09:37:49.321Z,99.99
2018-09-03T09:38:49.349Z,99.99
2018-09-03T09:39:49.369Z,99.99
2018-09-03T09:40:49.403Z,99.99
2018-09-03T09:41:49.429Z,99.99
2018-09-03T09:42:49.463Z,99.99
2018-09-03T09:43:49.485Z,99.99
2018-09-03T09:44:49.553Z,99.99
2018-09-03T09:45:49.536Z,99.99
2018-09-03T09:46:49.563Z,99.99
2018-09-03T09:47:49.592Z,99.99
2018-09-03T09:48:49.623Z,99.99
2018-09-03T09:49:49.643Z,99.99
2018-09-03T09:50:49.671Z,99.99
2018-09-03T09:51:49.698Z,99.31
2018-09-03T09:52:49.721Z,99.79
2018-09-03T09:53:49.746Z,98.39
2018-09-03T09:54:49.852Z,98.00
2018-09-03T09:55:49.810Z,97.91
2018-09-03T09:56:49.830Z,98.30
2018-09-03T09:57:49.863Z,96.65
2018-09-03T09:58:49.887Z,96.55
2018-09-03T09:59:49.912Z,97.13
2018-09-03T10:00:49.945Z,95.59
2018-09-03T10:01:49.966Z,94.81
2018-09-03T10:02:50.011Z,94.23
2018-09-03T10:03:50.020Z,93.89
2018-09-03T10:04:50.046Z,93.70
2018-09-03T10:05:50.078Z,93.41
2018-09-03T10:06:50.099Z,93.12
2018-09-03T10:07:50.141Z,93.31
2018-09-03T10:08:50.157Z,93.02
2018-09-03T10:09:50.199Z,92.63
2018-09-03T10:10:50.210Z,92.93
2018-09-03T10:11:50.242Z,93.31
2018-09-03T10:12:50.267Z,93.51
2018-09-03T10:13:50.300Z,93.70
2018-09-03T10:14:50.325Z,93.12
2018-09-03T10:15:50.346Z,92.93
2018-09-03T10:16:50.377Z,92.34
2018-09-03T10:17:50.401Z,91.61
2018-09-03T10:18:50.431Z,92.49
2018-09-03T10:19:50.461Z,91.81
2018-09-03T10:20:50.541Z,91.13
2018-09-03T10:21:50.515Z,90.74
2018-09-03T10:22:50.542Z,90.84
2018-09-03T10:23:50.568Z,90.64
2018-09-03T10:24:50.608Z,90.94
2018-09-03T10:25:50.626Z,90.74
2018-09-03T10:26:50.652Z,91.22
2018-09-03T10:27:50.681Z,91.13
2018-09-03T10:28:50.707Z,90.01
2018-09-03T10:29:50.738Z,89.82
2018-09-03T10:30:50.763Z,89.92
2018-09-03T10:31:50.821Z,89.82
2018-09-03T10:32:50.815Z,90.11
2018-09-03T10:33:50.850Z,89.82
2018-09-03T10:34:50.878Z,89.82
2018-09-03T10:35:50.902Z,89.76
2018-09-03T10:36:50.928Z,88.51
2018-09-03T10:37:50.963Z,88.89
2018-09-03T10:38:50.981Z,88.79
2018-09-03T10:39:51.010Z,88.12
2018-09-03T10:40:51.037Z,88.65
2018-09-03T10:41:51.070Z,87.77
2018-09-03T10:42:51.103Z,87.48
2018-09-03T10:43:51.123Z,86.32
2018-09-03T10:44:51.149Z,86.07
2018-09-03T10:45:51.176Z,84.42
2018-09-03T10:46:51.249Z,84.32
2018-09-03T10:47:51.235Z,84.27
2018-09-03T10:48:51.263Z,84.07
2018-09-03T10:49:51.338Z,83.88
2018-09-03T10:50:51.314Z,81.59
2018-09-03T10:51:51.344Z,80.62
2018-09-03T10:52:51.376Z,80.36
2018-09-03T10:53:51.402Z,79.88
2018-09-03T10:54:51.435Z,79.59
2018-09-03T10:55:51.465Z,78.66
2018-09-03T10:56:51.488Z,78.46
2018-09-03T10:57:51.517Z,77.14
2018-09-03T10:58:51.556Z,75.78
2018-09-03T10:59:51.578Z,74.35
2018-09-03T11:00:51.611Z,73.51
2018-09-03T11:01:51.642Z,72.67
2018-09-03T11:02:51.666Z,70.63
2018-09-03T11:03:51.705Z,66.89
2018-09-03T11:04:54.566Z,63.24
2018-09-03T11:05:51.768Z,61.18
2018-09-03T11:06:51.802Z,57.74
2018-09-03T11:07:51.835Z,55.51
2018-09-03T11:08:51.873Z,52.75
2018-09-03T11:09:51.906Z,51.22
2018-09-03T11:11:51.973Z,47.95
2018-09-03T11:12:52.005Z,46.81
2018-09-03T11:13:52.036Z,45.75
2018-09-03T11:14:52.069Z,44.49
2018-09-03T11:15:52.105Z,44.00
2018-09-03T11:16:52.144Z,44.27
2018-09-03T11:17:54.803Z,43.78
2018-09-03T11:18:52.208Z,44.27
2018-09-03T11:19:52.260Z,43.70
2018-09-03T11:20:53.288Z,43.21
2018-09-03T11:21:52.304Z,42.54
2018-09-03T11:22:52.355Z,42.24
2018-09-03T11:23:52.385Z,41.47
2018-09-03T11:24:52.414Z,41.41
2018-09-03T11:25:52.460Z,40.23
2018-09-03T11:26:52.486Z,40.21
2018-09-03T11:27:52.533Z,41.25
2018-09-03T11:28:52.812Z,42.60
2018-09-03T11:29:52.601Z,42.22
2018-09-03T11:30:55.256Z,41.75
2018-09-03T11:31:52.670Z,41.36
2018-09-03T11:32:52.706Z,41.87
2018-09-03T11:33:52.744Z,40.42
2018-09-03T11:34:52.827Z,39.85
2018-09-03T11:35:52.814Z,39.97
2018-09-03T11:36:52.850Z,39.24
2018-09-03T11:37:52.888Z,38.70
2018-09-03T11:38:52.924Z,38.49
2018-09-03T11:39:52.960Z,38.40
2018-09-03T11:40:53.053Z,37.99
2018-09-03T11:41:53.040Z,37.62
2018-09-03T11:42:53.074Z,37.73
2018-09-03T11:43:53.112Z,36.74
2018-09-03T11:44:53.144Z,36.77
2018-09-03T11:45:53.184Z,36.28
2018-09-03T11:46:53.229Z,35.09
2018-09-03T11:47:55.881Z,35.19
2018-09-03T11:48:53.292Z,34.97
2018-09-03T11:49:53.336Z,35.17
2018-09-03T11:50:53.376Z,34.89
2018-09-03T11:51:53.411Z,33.64
2018-09-03T11:52:53.452Z,34.13
2018-09-03T11:53:53.484Z,33.94
2018-09-03T11:54:53.538Z,33.44
2018-09-03T11:55:53.560Z,33.54
2018-09-03T11:56:53.600Z,33.75
2018-09-03T11:57:53.641Z,34.01
2018-09-03T11:58:53.676Z,33.65
2018-09-03T11:59:53.713Z,33.37
2018-09-03T12:00:53.752Z,32.49
2018-09-03T12:01:53.787Z,31.91
2018-09-03T12:02:53.830Z,32.29
2018-09-03T12:03:53.869Z,32.39
2018-09-03T12:04:53.909Z,32.79
2018-09-03T12:05:53.950Z,32.01
2018-09-03T12:06:53.982Z,31.73
2018-09-03T12:07:54.024Z,31.24
2018-09-03T12:10:16.725Z,30.46
2018-09-03T12:11:16.761Z,30.15
2018-09-03T12:12:16.804Z,29.77
2018-09-03T12:13:16.844Z,29.28
2018-09-03T12:14:16.882Z,29.20
2018-09-03T12:15:16.925Z,29.00
2018-09-03T12:16:16.963Z,29.28
2018-09-03T12:17:17.002Z,28.90
2018-09-03T12:18:17.044Z,29.39
2018-09-03T12:19:17.077Z,28.81
2018-09-03T12:20:17.118Z,28.91
2018-09-03T12:21:17.232Z,28.52
2018-09-03T12:22:17.204Z,27.93
2018-09-03T12:23:17.236Z,28.40
2018-09-03T12:24:17.276Z,28.20
2018-09-03T12:25:17.321Z,29.08
2018-09-03T12:26:17.358Z,28.78
2018-09-03T12:27:17.397Z,28.20
2018-09-03T12:28:17.444Z,28.10
2018-09-03T13:39:23.902Z,30.60
2018-09-03T13:40:23.939Z,31.31
2018-09-03T13:41:23.983Z,29.86
2018-09-03T13:42:24.055Z,28.83
2018-09-03T13:43:24.050Z,28.55
2018-09-03T13:44:24.086Z,29.08
2018-09-03T13:45:24.127Z,30.52
2018-09-03T13:47:09.339Z,29.11
2018-09-03T13:48:06.819Z,28.03
2018-09-03T13:49:06.798Z,27.67
2018-09-03T13:50:06.829Z,27.17
2018-09-03T13:51:07.071Z,27.09
2018-09-03T13:52:06.923Z,26.89
2018-09-03T13:53:06.951Z,27.47
2018-09-03T13:54:06.988Z,28.03
2018-09-03T13:55:07.072Z,28.46
2018-09-03T13:56:07.064Z,27.65
2018-09-03T13:57:07.101Z,27.66
2018-09-03T13:58:07.135Z,28.05
2018-09-03T13:59:07.185Z,27.83
2018-09-03T14:00:07.214Z,28.05
2018-09-03T14:01:07.259Z,28.43
2018-09-03T14:02:07.292Z,30.23
2018-09-03T14:03:07.338Z,32.64
2018-09-03T14:04:07.373Z,32.67
2018-09-03T14:05:07.407Z,30.63
2018-09-03T14:06:07.444Z,32.45
2018-09-03T14:07:07.483Z,33.67
2018-09-03T14:08:07.521Z,35.24
2018-09-03T14:09:07.557Z,34.30
2018-09-03T14:10:07.690Z,33.16
2018-09-03T14:11:07.637Z,33.20
2018-09-03T14:12:07.682Z,33.14
2018-09-03T14:13:07.710Z,31.81
2018-09-03T14:14:07.752Z,30.13